Time;durP1;ratioP1;P1;durP2;ratioP2;P2;SDS_P1;SDS_P2;PMS_P1;PMS_P2;Temp;Humidity;BMP_temperature;BMP_pressure;BME280_temperature;BME280_humidity;BME280_pressure;Samples;Min_cycle;Max_cycle;Signal;HPM_P1;HPM_P2
2022/06/12 00:01:09;;;;;;;1999.90;999.90;;;;;;;16.75;100.00;95641.50;5096880;28;20207;-54
2022/06/12 00:03:36;;;;;;;1999.90;999.90;;;;;;;16.75;100.00;95636.00;5114971;28;20192;-52
2022/06/12 00:06:03;;;;;;;1999.90;999.90;;;;;;;16.60;100.00;95634.84;5114679;28;20318;-60
2022/06/12 00:08:32;;;;;;;1999.90;999.90;;;;;;;16.50;100.00;95631.16;5114001;28;20183;-56
2022/06/12 00:11:00;;;;;;;1999.90;999.90;;;;;;;16.45;100.00;95623.41;5097096;28;20195;-66
2022/06/12 00:13:35;;;;;;;1999.90;999.90;;;;;;;16.44;100.00;95617.13;5097059;28;20188;-67
2022/06/12 00:16:03;;;;;;;1999.90;999.90;;;;;;;16.42;100.00;95608.53;5114429;28;20259;-66
2022/06/12 00:18:29;;;;;;;1999.90;999.90;;;;;;;16.39;100.00;95603.84;5096777;28;20183;-67
2022/06/12 00:21:12;;;;;;;1999.90;999.90;;;;;;;16.37;100.00;95594.47;5096906;28;20349;-66
2022/06/12 00:23:44;;;;;;;1999.90;999.90;;;;;;;16.32;100.00;95601.28;5096829;28;20192;-67
2022/06/12 00:26:10;;;;;;;1999.90;999.90;;;;;;;16.34;100.00;95596.13;5096832;28;20184;-69
2022/06/12 00:28:35;;;;;;;1999.90;999.90;;;;;;;16.37;100.00;95603.53;5096536;28;20218;-63
2022/06/12 00:31:01;;;;;;;1999.90;999.90;;;;;;;16.42;100.00;95591.97;5113761;28;20196;-63
2022/06/12 00:33:27;;;;;;;1999.90;999.90;;;;;;;16.40;100.00;95599.13;5096579;28;20202;-63
2022/06/12 00:35:52;;;;;;;1999.90;999.90;;;;;;;16.35;100.00;95581.13;5096836;28;20199;-63
2022/06/12 00:38:17;;;;;;;1999.90;999.90;;;;;;;16.36;100.00;95598.44;5113605;28;20220;-63
2022/06/12 00:40:43;;;;;;;1999.90;999.90;;;;;;;16.30;100.00;95589.94;5113589;28;20211;-63
2022/06/12 00:43:13;;;;;;;1999.90;999.90;;;;;;;16.19;100.00;95594.94;5113986;28;20192;-70
2022/06/12 00:45:42;;;;;;;1999.90;999.90;;;;;;;16.14;100.00;95576.16;5113976;28;20244;-69
2022/06/12 00:48:17;;;;;;;1999.90;999.90;;;;;;;16.11;100.00;95582.53;5114427;28;20211;-69
2022/06/12 00:50:47;;;;;;;1999.90;999.90;;;;;;;16.10;100.00;95575.50;5096867;28;20244;-69
2022/06/12 00:53:18;;;;;;;1999.90;999.90;;;;;;;16.09;100.00;95575.94;5113075;28;20212;-72
2022/06/12 00:55:58;;;;;;;1999.90;999.90;;;;;;;16.07;100.00;95553.56;5113375;28;20236;-69
2022/06/12 00:58:26;;;;;;;1999.90;999.90;;;;;;;16.03;100.00;95541.88;5113873;28;20240;-71
2022/06/12 01:00:52;;;;;;;1999.90;999.90;;;;;;;16.05;100.00;95548.47;5096372;28;20294;-68
2022/06/12 01:03:19;;;;;;;1999.90;999.90;;;;;;;15.98;100.00;95551.41;5096394;28;20187;-66
2022/06/12 01:08:30;;;;;;;1999.90;999.90;;;;;;;15.96;100.00;95537.28;5114579;28;20190;-59
2022/06/12 01:11:00;;;;;;;1999.90;999.90;;;;;;;15.90;100.00;95535.50;5096125;28;20192;-59
2022/06/12 01:13:29;;;;;;;1999.90;999.90;;;;;;;15.89;100.00;95533.97;5113975;28;20176;-59
2022/06/12 01:16:00;;;;;;;1999.90;999.90;;;;;;;15.82;100.00;95512.91;5112810;28;20202;-59
2022/06/12 01:18:30;;;;;;;1999.90;999.90;;;;;;;15.83;100.00;95517.19;5113546;28;20210;-59
2022/06/12 01:21:08;;;;;;;1999.90;999.90;;;;;;;15.82;100.00;95515.66;5113466;28;20203;-59
2022/06/12 01:23:44;;;;;;;1999.90;999.90;;;;;;;15.81;100.00;95497.56;5113318;28;20182;-69
2022/06/12 01:26:31;;;;;;;1999.90;999.90;;;;;;;15.81;100.00;95503.06;5096394;28;20180;-68
2022/06/12 01:29:06;;;;;;;1999.90;999.90;;;;;;;15.77;100.00;95496.88;5112975;28;20179;-68
2022/06/12 01:31:37;;;;;;;1999.90;999.90;;;;;;;15.73;100.00;95496.22;5113368;28;20164;-69
2022/06/12 01:34:27;;;;;;;1999.90;999.90;;;;;;;15.72;100.00;95505.69;5113006;28;20183;-68
2022/06/12 01:36:55;;;;;;;1999.90;999.90;;;;;;;15.66;100.00;95501.91;5112729;28;20184;-67
2022/06/12 01:39:36;;;;;;;1999.90;999.90;;;;;;;15.59;100.00;95485.56;5113434;28;20265;-70
2022/06/12 01:42:11;;;;;;;1999.90;999.90;;;;;;;15.61;100.00;95477.66;5112820;28;20218;-70
2022/06/12 01:44:58;;;;;;;1999.90;999.90;;;;;;;15.59;100.00;95480.06;5116226;28;20186;-70
2022/06/12 01:47:58;;;;;;;1999.90;999.90;;;;;;;15.57;100.00;95485.25;5116528;28;20266;-70
2022/06/12 01:50:54;;;;;;;1999.90;999.90;;;;;;;15.54;100.00;95477.84;5098756;28;20176;-71
2022/06/12 01:53:23;;;;;;;1999.90;999.90;;;;;;;15.52;100.00;95491.25;5116390;28;20282;-71
2022/06/12 01:56:09;;;;;;;1999.90;999.90;;;;;;;15.51;100.00;95484.22;5116158;28;20267;-71
2022/06/12 01:58:56;;;;;;;1999.90;999.90;;;;;;;15.51;100.00;95475.94;5098720;28;20180;-52
2022/06/12 02:01:21;;;;;;;1999.90;999.90;;;;;;;15.47;100.00;95478.03;5099371;28;20202;-70
2022/06/12 02:04:16;;;;;;;1999.90;999.90;;;;;;;15.45;100.00;95463.91;5115849;28;20183;-69
2022/06/12 02:07:04;;;;;;;1999.90;999.90;;;;;;;15.38;100.00;95463.31;5114223;28;20184;-70
2022/06/12 02:09:41;;;;;;;1999.90;999.90;;;;;;;15.33;100.00;95453.56;5115539;28;20237;-70
2022/06/12 02:15:09;;;;;;;1999.90;999.90;;;;;;;15.27;100.00;95446.28;5117499;28;20210;-61
2022/06/12 02:17:46;;;;;;;1999.90;999.90;;;;;;;15.27;100.00;95436.03;5099171;28;20270;-69
2022/06/12 02:20:18;;;;;;;1999.90;999.90;;;;;;;15.24;100.00;95433.38;5098434;28;20207;-67
2022/06/12 02:22:44;;;;;;;1999.90;999.90;;;;;;;15.25;100.00;95427.44;5098672;28;20191;-70
2022/06/12 02:25:13;;;;;;;1999.90;999.90;;;;;;;15.22;100.00;95422.81;5115736;28;20183;-73
2022/06/12 02:27:44;;;;;;;1999.90;999.90;;;;;;;15.21;100.00;95414.97;5098344;28;20248;-71
2022/06/12 02:30:12;;;;;;;1999.90;999.90;;;;;;;15.19;100.00;95412.66;5116096;28;20192;-69
2022/06/12 02:32:43;;;;;;;1999.90;999.90;;;;;;;15.18;100.00;95419.38;5115982;28;20232;-70
2022/06/12 02:35:39;;;;;;;1999.90;999.90;;;;;;;15.12;100.00;95412.09;5098936;28;20183;-59
2022/06/12 02:38:10;;;;;;;1999.90;999.90;;;;;;;15.07;100.00;95410.63;5098691;28;20210;-52
2022/06/12 02:40:43;;;;;;;1999.90;999.90;;;;;;;15.07;100.00;95405.13;5098639;28;20215;-52
2022/06/12 02:43:13;;;;;;;1999.90;999.90;;;;;;;15.05;100.00;95415.75;5115318;28;20172;-50
2022/06/12 02:45:50;;;;;;;1999.90;999.90;;;;;;;15.05;100.00;95413.00;5098372;28;20212;-53
2022/06/12 02:48:16;;;;;;;1999.90;999.90;;;;;;;15.05;100.00;95402.00;5098440;28;20188;-52
2022/06/12 02:50:53;;;;;;;1999.90;999.90;;;;;;;15.05;100.00;95407.50;5115706;28;20205;-51
2022/06/12 02:53:34;;;;;;;1999.90;999.90;;;;;;;15.04;100.00;95405.22;5115476;28;20219;-59
2022/06/12 02:56:26;;;;;;;1999.90;999.90;;;;;;;15.03;100.00;95403.66;5097349;28;20275;-60
2022/06/12 02:59:01;;;;;;;1999.90;999.90;;;;;;;15.01;100.00;95401.34;5115125;28;20206;-60
2022/06/12 03:01:53;;;;;;;1999.90;999.90;;;;;;;14.99;100.00;95398.25;5115677;28;20214;-60
2022/06/12 03:04:29;;;;;;;1999.90;999.90;;;;;;;15.02;100.00;95402.91;5098396;28;20272;-60
2022/06/12 03:06:54;;;;;;;1999.90;999.90;;;;;;;14.99;100.00;95408.47;5097841;28;20248;-60
2022/06/12 03:09:20;;;;;;;1999.90;999.90;;;;;;;14.98;100.00;95407.72;5114888;28;20195;-60
2022/06/12 03:11:48;;;;;;;1999.90;999.90;;;;;;;14.96;100.00;95410.13;5098004;28;20171;-51
2022/06/12 03:14:18;;;;;;;1999.90;999.90;;;;;;;14.94;100.00;95400.75;5114807;28;20198;-53
2022/06/12 03:16:44;;;;;;;1999.90;999.90;;;;;;;14.93;100.00;95399.22;5114880;28;20248;-51
2022/06/12 03:19:14;;;;;;;1999.90;999.90;;;;;;;14.87;100.00;95390.72;5097772;28;20194;-51
2022/06/12 03:21:48;;;;;;;1999.90;999.90;;;;;;;14.89;100.00;95387.50;5097777;28;20215;-53
2022/06/12 03:24:26;;;;;;;1999.90;999.90;;;;;;;14.93;100.00;95393.72;5098334;28;20183;-51
2022/06/12 03:26:57;;;;;;;1999.90;999.90;;;;;;;14.93;100.00;95388.97;5114708;28;20202;-49
2022/06/12 03:29:31;;;;;;;1999.90;999.90;;;;;;;14.95;100.00;95389.31;5114487;28;20195;-61
2022/06/12 03:32:03;;;;;;;1999.90;999.90;;;;;;;15.03;100.00;95393.44;5097961;28;20187;-59
2022/06/12 03:35:01;;;;;;;1999.90;999.90;;;;;;;15.21;100.00;95399.25;5114712;28;20184;-59
2022/06/12 03:37:49;;;;;;;1999.90;999.90;;;;;;;15.48;100.00;95404.50;5107518;28;20194;-59
2022/06/12 03:40:39;;;;;;;1999.90;999.90;;;;;;;15.73;100.00;95424.63;5114444;28;20292;-60
2022/06/12 03:43:17;;;;;;;1999.90;999.90;;;;;;;15.99;100.00;95464.81;5114357;28;20272;-60
2022/06/12 03:46:01;;;;;;;1999.90;999.90;;;;;;;16.18;100.00;95496.94;5114346;28;20195;-59
2022/06/12 03:48:35;;;;;;;1999.90;999.90;;;;;;;16.32;100.00;95521.34;5097352;28;20188;-66
2022/06/12 03:51:06;;;;;;;1999.90;999.90;;;;;;;16.38;100.00;95552.69;5097628;28;20203;-61
2022/06/12 03:53:44;;;;;;;1999.90;999.90;;;;;;;16.49;100.00;95551.66;5114342;28;20278;-62
2022/06/12 03:59:21;;;;;;;1999.90;999.90;;;;;;;16.79;100.00;95587.78;5115651;28;20337;-61
2022/06/12 04:01:49;;;;;;;1999.90;999.90;;;;;;;16.92;100.00;95601.59;5113886;28;20195;-61
2022/06/12 04:04:18;;;;;;;1999.90;999.90;;;;;;;17.26;100.00;95615.56;5113754;28;20180;-62
2022/06/12 04:06:45;;;;;;;1999.90;999.90;;;;;;;17.63;100.00;95634.16;5112664;28;20212;-59
2022/06/12 04:09:19;;;;;;;1999.90;999.90;;;;;;;18.14;100.00;95666.06;5113807;28;20192;-58
2022/06/12 04:11:55;;;;;;;1999.90;999.90;;;;;;;18.41;100.00;95705.06;5097641;28;20235;-58
2022/06/12 04:14:25;;;;;;;1999.90;999.90;;;;;;;18.77;100.00;95713.72;5097646;28;20188;-58
2022/06/12 04:16:54;;;;;;;1999.90;999.90;;;;;;;18.98;100.00;95732.34;5113897;28;20240;-58
2022/06/12 04:19:23;;;;;;;1999.90;999.90;;;;;;;19.39;100.00;95745.91;5096891;28;20243;-58
2022/06/12 04:21:59;;;;;;;1999.90;999.90;;;;;;;19.72;100.00;95785.84;5113624;28;20184;-58
2022/06/12 04:24:46;;;;;;;1999.90;999.90;;;;;;;20.13;100.00;95793.03;5097125;28;20203;-69
2022/06/12 04:27:18;;;;;;;1999.90;999.90;;;;;;;20.45;100.00;95800.88;5097577;28;20275;-58
2022/06/12 04:30:00;;;;;;;1999.90;999.90;;;;;;;20.76;100.00;95819.00;5113547;28;20176;-59
2022/06/12 04:32:28;;;;;;;1999.90;999.90;;;;;;;21.06;100.00;95826.53;5096567;28;20247;-59
2022/06/12 04:34:53;;;;;;;1999.90;999.90;;;;;;;21.32;100.00;95838.91;5096646;28;20179;-59
2022/06/12 04:37:28;;;;;;;1999.90;999.90;;;;;;;21.56;100.00;95853.72;5097109;28;20172;-59
2022/06/12 04:39:57;;;;;;;1999.90;999.90;;;;;;;21.94;100.00;95856.06;5114272;28;20207;-59
2022/06/12 04:42:25;;;;;;;1999.90;999.90;;;;;;;22.15;100.00;95866.25;5113354;28;20276;-54
2022/06/12 04:44:51;;;;;;;1999.90;999.90;;;;;;;22.25;100.00;95868.53;5096428;28;20184;-62
2022/06/12 04:47:21;;;;;;;1999.90;999.90;;;;;;;22.22;100.00;95863.91;5096146;28;20188;-65
2022/06/12 04:49:48;;;;;;;1999.90;999.90;;;;;;;22.29;100.00;95860.78;5113035;28;20195;-64
2022/06/12 04:52:14;;;;;;;1999.90;999.90;;;;;;;22.48;99.99;95871.91;5113218;28;20192;-65
2022/06/12 04:54:41;;;;;;;1999.90;999.90;;;;;;;22.63;98.08;95859.63;5113125;28;20188;-64
2022/06/12 04:57:09;;;;;;;1999.90;999.90;;;;;;;22.71;97.30;95868.41;5113363;28;20187;-64
2022/06/12 04:59:35;;;;;;;1999.90;999.90;;;;;;;23.30;94.45;95870.31;5113311;28;20244;-64
2022/06/12 05:02:01;;;;;;;1999.90;999.90;;;;;;;23.45;92.69;95871.91;5096322;28;20180;-64
2022/06/12 05:04:28;;;;;;;1999.90;999.90;;;;;;;23.67;91.13;95868.81;5096288;28;20192;-69
2022/06/12 05:06:53;;;;;;;1999.90;999.90;;;;;;;23.95;88.30;95875.72;5113141;28;20188;-70
2022/06/12 05:09:24;;;;;;;1999.90;999.90;;;;;;;24.41;86.59;95876.84;5095904;28;20270;-67
2022/06/12 05:11:50;;;;;;;1999.90;999.90;;;;;;;24.84;84.08;95885.19;5113124;28;20278;-68
2022/06/12 05:14:15;;;;;;;1999.90;999.90;;;;;;;25.23;81.51;95889.34;5096369;28;20244;-70
2022/06/12 05:16:46;;;;;;;1999.90;999.90;;;;;;;25.62;79.43;95887.13;5095919;28;20192;-69
2022/06/12 05:19:14;;;;;;;1999.90;999.90;;;;;;;26.12;75.43;95899.72;5115613;28;20188;-68
2022/06/12 05:21:41;;;;;;;1999.90;999.90;;;;;;;26.37;73.98;95903.81;5099190;28;20243;-50
2022/06/12 05:24:09;;;;;;;1999.90;999.90;;;;;;;26.62;71.39;95897.47;5099565;28;20187;-52
2022/06/12 05:26:34;;;;;;;1999.90;999.90;;;;;;;27.18;70.38;95908.63;5116573;28;20247;-55
2022/06/12 05:29:02;;;;;;;1999.90;999.90;;;;;;;27.46;67.38;95911.63;5116419;28;20279;-56
2022/06/12 05:31:28;;;;;;;1999.90;999.90;;;;;;;27.55;68.14;95906.59;5116259;28;20322;-56
2022/06/12 05:33:53;;;;;;;1999.90;999.90;;;;;;;28.08;63.83;95900.97;5116505;28;20187;-57
2022/06/12 05:36:20;;;;;;;1999.90;999.90;;;;;;;28.13;63.61;95900.25;5117509;28;20180;-56
2022/06/12 05:38:46;;;;;;;1999.90;999.90;;;;;;;28.43;63.50;95900.59;5099582;28;20219;-61
2022/06/12 05:41:12;;;;;;;1999.90;999.90;;;;;;;28.85;62.37;95899.63;5098855;28;20211;-63
2022/06/12 05:43:40;;;;;;;1999.90;999.90;;;;;;;29.65;57.31;95899.34;5099391;28;20206;-65
2022/06/12 05:46:07;;;;;;;1999.90;999.90;;;;;;;30.01;57.26;95897.41;5116255;28;20293;-65
2022/06/12 05:48:33;;;;;;;1999.90;999.90;;;;;;;30.38;55.59;95903.41;5098750;28;20191;-64
2022/06/12 05:51:00;;;;;;;1999.90;999.90;;;;;;;31.21;51.70;95906.44;5099496;28;20188;-64
2022/06/12 05:53:28;;;;;;;1999.90;999.90;;;;;;;31.09;50.47;95910.63;5099127;28;20188;-66
2022/06/12 05:55:55;;;;;;;1999.90;999.90;;;;;;;31.12;49.95;95915.22;5116246;28;20233;-63
2022/06/12 05:58:22;;;;;;;1999.90;999.90;;;;;;;31.65;49.06;95916.56;5116073;28;20183;-60
2022/06/12 06:00:48;;;;;;;1999.90;999.90;;;;;;;31.60;49.02;95908.91;5098647;28;20218;-60
2022/06/12 06:03:15;;;;;;;1999.90;999.90;;;;;;;31.91;47.39;95911.94;5099182;28;20180;-60
2022/06/12 06:05:42;;;;;;;1999.90;999.90;;;;;;;31.27;49.63;95903.59;5098715;28;20183;-60
2022/06/12 06:08:08;;;;;;;1999.90;999.90;;;;;;;31.82;48.24;95903.06;5115774;28;20195;-60
2022/06/12 06:10:34;;;;;;;1999.90;999.90;;;;;;;32.04;48.06;95911.28;5115481;28;20184;-61
2022/06/12 06:12:59;;;;;;;1999.90;999.90;;;;;;;32.83;45.31;95899.94;5098391;28;20290;-60
2022/06/12 06:15:25;;;;;;;1999.90;999.90;;;;;;;33.14;43.00;95912.56;5116819;28;20208;-58
2022/06/12 06:17:52;;;;;;;1999.90;999.90;;;;;;;33.09;42.70;95905.69;5116779;28;20191;-59
2022/06/12 06:20:23;;;;;;;1999.90;999.90;;;;;;;32.65;43.08;95906.34;5115621;28;20260;-59
2022/06/12 06:22:50;;;;;;;1999.90;999.90;;;;;;;33.43;42.02;95906.66;5116002;28;20180;-58
2022/06/12 06:25:15;;;;;;;1999.90;999.90;;;;;;;33.22;41.27;95911.38;5115351;28;20237;-60
2022/06/12 06:27:41;;;;;;;1999.90;999.90;;;;;;;33.83;41.07;95913.94;5098387;28;20270;-58
2022/06/12 06:30:07;;;;;;;1999.90;999.90;;;;;;;34.19;40.40;95919.94;5097283;28;20183;-59
2022/06/12 06:32:32;;;;;;;1999.90;999.90;;;;;;;34.69;38.79;95910.38;5115346;28;20218;-65
2022/06/12 06:34:59;;;;;;;1999.90;999.90;;;;;;;34.92;37.49;95911.44;5115383;28;20180;-62
2022/06/12 06:37:24;;;;;;;1999.90;999.90;;;;;;;34.99;38.08;95910.75;5098468;28;20267;-62
2022/06/12 06:39:50;;;;;;;1999.90;999.90;;;;;;;35.24;37.73;95914.75;5114880;28;20311;-61
2022/06/12 06:42:15;;;;;;;1999.90;999.90;;;;;;;35.42;37.96;95910.97;5115142;28;20188;-62
2022/06/12 06:47:25;;;;;;;1999.90;999.90;;;;;;;36.40;36.12;95921.00;5116609;28;20283;-60
2022/06/12 06:49:50;;;;;;;1999.90;999.90;;;;;;;36.53;34.88;95912.34;5115627;28;20207;-62
2022/06/12 06:52:16;;;;;;;1999.90;999.90;;;;;;;36.28;35.14;95920.56;5115301;28;20179;-62
2022/06/12 06:54:41;;;;;;;1999.90;999.90;;;;;;;36.32;34.32;95917.34;5098076;28;20179;-66
2022/06/12 06:57:08;;;;;;;1999.90;999.90;;;;;;;36.50;35.43;95914.22;5098284;28;20180;-68
2022/06/12 06:59:34;;;;;;;1999.90;999.90;;;;;;;36.89;34.64;95915.16;5115251;28;20184;-67
2022/06/12 07:01:59;;;;;;;1999.90;999.90;;;;;;;37.01;33.85;95911.38;5114654;28;20244;-65
2022/06/12 07:04:26;;;;;;;1999.90;999.90;;;;;;;36.53;34.04;95915.94;5115762;28;20258;-66
2022/06/12 07:06:51;;;;;;;1999.90;999.90;;;;;;;36.71;34.50;95911.28;5097848;28;20184;-64
2022/06/12 07:09:17;;;;;;;1999.90;999.90;;;;;;;37.03;33.43;95908.72;5114986;28;20190;-61
2022/06/12 07:11:42;;;;;;;1999.90;999.90;;;;;;;37.48;33.17;95902.34;5115042;28;20184;-54
2022/06/12 07:14:07;;;;;;;1999.90;999.90;;;;;;;38.02;31.88;95905.34;5115289;28;20248;-57
2022/06/12 07:16:34;;;;;;;1999.90;999.90;;;;;;;38.58;31.73;95907.72;5114785;28;20187;-57
2022/06/12 07:19:00;;;;;;;1999.90;999.90;;;;;;;37.67;31.91;95912.06;5098215;28;20187;-57
2022/06/12 07:21:25;;;;;;;1999.90;999.90;;;;;;;36.24;33.47;95919.41;5097839;28;20200;-58
2022/06/12 07:23:51;;;;;;;1999.90;999.90;;;;;;;35.87;35.75;95912.13;5098058;28;20188;-57
2022/06/12 07:26:26;;;;;;;1999.90;999.90;;;;;;;36.28;34.67;95902.72;5097653;28;20179;-58
2022/06/12 07:28:52;;;;;;;1999.90;999.90;;;;;;;37.25;32.71;95908.00;5114745;28;20205;-57
2022/06/12 07:31:19;;;;;;;1999.90;999.90;;;;;;;37.50;32.78;95911.84;5114636;28;20186;-63
2022/06/12 07:33:45;;;;;;;1999.90;999.90;;;;;;;37.25;32.11;95902.31;5114731;28;20271;-60
2022/06/12 07:36:14;;;;;;;1999.90;999.90;;;;;;;36.79;32.70;95911.31;5097723;28;20199;-60
2022/06/12 07:38:41;;;;;;;1999.90;999.90;;;;;;;36.86;31.90;95910.56;5097265;28;20284;-61
2022/06/12 07:41:09;;;;;;;1999.90;999.90;;;;;;;37.29;31.65;95905.56;5113844;28;20196;-61
2022/06/12 07:43:35;;;;;;;1999.90;999.90;;;;;;;38.32;30.18;95905.31;5097752;28;20183;-61
2022/06/12 07:46:02;;;;;;;1999.90;999.90;;;;;;;38.51;28.57;95905.66;5097450;28;20175;-60
2022/06/12 07:48:31;;;;;;;1999.90;999.90;;;;;;;38.49;28.52;95902.59;5114405;28;20195;-66
2022/06/12 07:50:58;;;;;;;1999.90;999.90;;;;;;;39.29;28.59;95900.50;5114380;28;20190;-66
2022/06/12 07:53:23;;;;;;;1999.90;999.90;;;;;;;39.28;26.83;95902.59;5097262;28;20188;-60
2022/06/12 07:55:50;;;;;;;1999.90;999.90;;;;;;;40.47;25.46;95907.09;5114296;28;20232;-60
2022/06/12 07:58:17;;;;;;;1999.90;999.90;;;;;;;40.53;25.52;95901.88;5097187;28;20191;-60
2022/06/12 08:00:42;;;;;;;1999.90;999.90;;;;;;;40.25;25.13;95905.25;5097455;28;20294;-60
2022/06/12 08:03:09;;;;;;;1999.90;999.90;;;;;;;39.84;25.30;95900.28;5113969;28;20252;-60
2022/06/12 08:05:34;;;;;;;1999.90;999.90;;;;;;;40.51;24.47;95898.84;5097046;28;20176;-60
2022/06/12 08:08:00;;;;;;;1999.90;999.90;;;;;;;40.12;24.55;95912.03;5114014;28;20384;-59
2022/06/12 08:10:25;;;;;;;1999.90;999.90;;;;;;;40.44;23.49;95906.19;5097039;28;20274;-60
2022/06/12 08:12:51;;;;;;;1999.90;999.90;;;;;;;40.73;22.53;95903.56;5113939;28;20270;-59
2022/06/12 08:15:21;;;;;;;1999.90;999.90;;;;;;;40.75;23.32;95907.34;5097217;28;20184;-59
2022/06/12 08:17:47;;;;;;;1999.90;999.90;;;;;;;40.87;23.43;95907.59;5096937;28;20202;-59
2022/06/12 08:20:25;;;;;;;1999.90;999.90;;;;;;;40.58;23.33;95909.44;5096896;28;20196;-59
2022/06/12 08:22:58;;;;;;;1999.90;999.90;;;;;;;40.92;22.86;95906.53;5115050;28;20207;-63
2022/06/12 08:25:25;;;;;;;1999.90;999.90;;;;;;;40.95;22.39;95902.50;5114021;28;20183;-65
2022/06/12 08:27:51;;;;;;;1999.90;999.90;;;;;;;40.80;23.81;95911.31;5113347;28;20246;-65
2022/06/12 08:30:16;;;;;;;1999.90;999.90;;;;;;;41.22;22.56;95900.44;5096991;28;20215;-64
2022/06/12 08:32:44;;;;;;;1999.90;999.90;;;;;;;41.78;21.50;95913.53;5114130;28;20183;-64
2022/06/12 08:35:13;;;;;;;1999.90;999.90;;;;;;;41.90;21.53;95908.75;5114106;28;20184;-64
2022/06/12 08:37:40;;;;;;;1999.90;999.90;;;;;;;41.71;20.94;95911.53;5113359;28;20186;-65
2022/06/12 08:40:18;;;;;;;1999.90;999.90;;;;;;;40.87;21.67;95901.84;5113555;28;20200;-64
2022/06/12 08:42:57;;;;;;;1999.90;999.90;;;;;;;40.49;22.70;95898.69;5114685;28;20204;-64
2022/06/12 08:45:29;;;;;;;1999.90;999.90;;;;;;;40.57;22.90;95896.47;5114545;28;20229;-59
2022/06/12 08:48:09;;;;;;;1999.90;999.90;;;;;;;40.80;22.24;95894.09;5113628;28;20184;-59
2022/06/12 08:50:44;;;;;;;1999.90;999.90;;;;;;;40.89;22.23;95890.56;5113960;28;20202;-59
2022/06/12 08:53:17;;;;;;;1999.90;999.90;;;;;;;40.10;22.25;95894.69;5112986;28;20183;-59
2022/06/12 08:55:55;;;;;;;1999.90;999.90;;;;;;;38.48;23.91;95892.50;5113073;28;20180;-59
2022/06/12 08:58:31;;;;;;;1999.90;999.90;;;;;;;38.36;23.80;95888.56;5114306;28;20176;-59
2022/06/12 09:00:59;;;;;;;1999.90;999.90;;;;;;;38.02;24.23;95893.94;5096114;28;20203;-66
2022/06/12 09:03:29;;;;;;;1999.90;999.90;;;;;;;38.15;23.88;95890.91;5096023;28;20176;-64
2022/06/12 09:06:16;;;;;;;1999.90;999.90;;;;;;;38.18;24.04;95883.28;5096266;28;20184;-64
2022/06/12 09:08:45;;;;;;;1999.90;999.90;;;;;;;38.62;24.35;95881.59;5113808;28;20191;-64
2022/06/12 09:11:20;;;;;;;1999.90;999.90;;;;;;;39.68;22.84;95870.28;5112906;28;20186;-64
2022/06/12 09:13:45;;;;;;;1999.90;999.90;;;;;;;39.78;22.86;95879.69;5113757;28;20236;-63
2022/06/12 09:16:27;;;;;;;1999.90;999.90;;;;;;;40.15;22.70;95878.59;5113320;28;20179;-64
2022/06/12 09:19:31;;;;;;;1999.90;999.90;;;;;;;40.36;21.82;95873.22;5096561;28;20278;-58
2022/06/12 09:23:05;;;;;;;1999.90;999.90;;;;;;;40.00;21.99;95873.03;5046969;28;20252;-59
2022/06/12 09:25:43;;;;;;;1999.90;999.90;;;;;;;41.45;20.19;95875.03;5003257;28;20277;-60
2022/06/12 09:28:12;;;;;;;1999.90;999.90;;;;;;;41.16;20.55;95871.25;5102998;28;20183;-60
2022/06/12 09:30:46;;;;;;;1999.90;999.90;;;;;;;40.25;21.63;95865.16;5113128;28;20194;-59
2022/06/12 09:33:23;;;;;;;1999.90;999.90;;;;;;;39.12;21.99;95866.88;5095592;28;20271;-62
2022/06/12 09:36:07;;;;;;;1999.90;999.90;;;;;;;39.82;20.36;95862.91;5112723;28;20190;-70
2022/06/12 09:38:35;;;;;;;1999.90;999.90;;;;;;;40.09;20.29;95870.25;5113484;28;20212;-60
2022/06/12 09:41:05;;;;;;;1999.90;999.90;;;;;;;40.35;20.13;95863.13;5112565;28;20207;-58
2022/06/12 09:43:50;;;;;;;1999.90;999.90;;;;;;;40.03;19.95;95860.41;5112612;28;20184;-58
2022/06/12 09:46:34;;;;;;;1999.90;999.90;;;;;;;40.84;20.22;95860.03;5095686;28;20180;-58
2022/06/12 09:49:07;;;;;;;1999.90;999.90;;;;;;;41.31;19.35;95859.53;5112827;28;20290;-58
2022/06/12 09:51:57;;;;;;;1999.90;999.90;;;;;;;41.39;18.59;95863.81;5112580;28;20191;-58
2022/06/12 09:54:45;;;;;;;1999.90;999.90;;;;;;;40.82;18.78;95865.59;5113286;28;20184;-67
2022/06/12 09:57:31;;;;;;;1999.90;999.90;;;;;;;40.69;19.37;95852.41;5113693;28;20187;-57
2022/06/12 10:00:16;;;;;;;1999.90;999.90;;;;;;;40.68;19.40;95853.75;5113632;28;20191;-57
2022/06/12 10:03:42;;;;;;;1999.90;999.90;;;;;;;40.79;19.95;95847.50;5096071;28;20187;-57
2022/06/12 10:06:23;;;;;;;1999.90;999.90;;;;;;;40.45;18.58;95858.22;5035056;28;20261;-57
2022/06/12 10:09:27;;;;;;;1999.90;999.90;;;;;;;40.67;19.24;95842.88;5035057;28;20198;-57
2022/06/12 10:12:02;;;;;;;1999.90;999.90;;;;;;;40.82;18.25;95836.94;5093163;28;20192;-57
2022/06/12 10:14:30;;;;;;;1999.90;999.90;;;;;;;40.49;18.76;95838.50;5115802;28;20201;-69
2022/06/12 10:17:03;;;;;;;1999.90;999.90;;;;;;;39.26;18.44;95839.47;5115848;28;20202;-65
2022/06/12 10:19:32;;;;;;;1999.90;999.90;;;;;;;39.29;18.60;95829.00;5098831;28;20198;-65
2022/06/12 10:22:01;;;;;;;1999.90;999.90;;;;;;;38.48;19.79;95821.09;5115680;28;20259;-64
2022/06/12 10:24:27;;;;;;;1999.90;999.90;;;;;;;38.73;20.66;95819.06;5098864;28;20176;-64
2022/06/12 10:27:06;;;;;;;1999.90;999.90;;;;;;;38.72;21.43;95823.28;5115585;28;20213;-64
2022/06/12 10:29:50;;;;;;;1999.90;999.90;;;;;;;38.04;21.72;95822.00;5099218;28;20205;-64
2022/06/12 10:32:26;;;;;;;1999.90;999.90;;;;;;;37.61;22.64;95811.63;5115548;28;20183;-63
2022/06/12 10:34:51;;;;;;;1999.90;999.90;;;;;;;37.77;22.75;95816.00;5099109;28;20184;-55
2022/06/12 10:37:24;;;;;;;1999.90;999.90;;;;;;;37.52;22.61;95811.44;5115871;28;20187;-55
2022/06/12 10:40:03;;;;;;;1999.90;999.90;;;;;;;38.40;21.12;95803.22;5098536;28;20212;-54
2022/06/12 10:42:50;;;;;;;1999.90;999.90;;;;;;;37.57;22.17;95802.69;5098588;28;20176;-55
2022/06/12 10:45:22;;;;;;;1999.90;999.90;;;;;;;39.37;20.51;95789.66;5115157;28;20260;-57
2022/06/12 10:47:50;;;;;;;1999.90;999.90;;;;;;;39.74;19.26;95799.22;5115870;28;20171;-57
2022/06/12 10:50:31;;;;;;;1999.90;999.90;;;;;;;38.96;21.71;95802.53;5098364;28;20184;-67
2022/06/12 10:53:06;;;;;;;1999.90;999.90;;;;;;;38.88;20.22;95790.38;5098215;28;20176;-65
2022/06/12 10:55:41;;;;;;;1999.90;999.90;;;;;;;39.86;20.54;95789.56;5115240;28;20182;-66
2022/06/12 10:58:24;;;;;;;1999.90;999.90;;;;;;;40.12;19.68;95799.59;5098611;28;20218;-65
2022/06/12 11:00:54;;;;;;;1999.90;999.90;;;;;;;39.15;19.92;95802.03;5115067;28;20246;-66
2022/06/12 11:03:36;;;;;;;1999.90;999.90;;;;;;;39.77;19.72;95786.59;5098089;28;20191;-66
2022/06/12 11:06:14;;;;;;;1999.90;999.90;;;;;;;38.85;19.88;95773.66;5114919;28;20179;-64
2022/06/12 11:09:04;;;;;;;1999.90;999.90;;;;;;;37.12;20.74;95777.03;5098585;28;20218;-67
2022/06/12 11:11:38;;;;;;;1999.90;999.90;;;;;;;38.09;20.57;95767.56;5098008;28;20187;-60
2022/06/12 11:14:33;;;;;;;1999.90;999.90;;;;;;;38.08;20.58;95766.06;5115012;28;20199;-59
2022/06/12 11:17:46;;;;;;;1999.90;999.90;;;;;;;38.01;21.04;95755.41;5090111;28;20214;-59
2022/06/12 11:20:43;;;;;;;1999.90;999.90;;;;;;;38.01;20.78;95761.09;5026911;28;20210;-59
2022/06/12 11:23:28;;;;;;;1999.90;999.90;;;;;;;37.17;23.03;95758.25;5115144;28;20267;-58
2022/06/12 11:26:22;;;;;;;1999.90;999.90;;;;;;;37.18;21.56;95754.84;5115097;28;20187;-69
2022/06/12 11:29:02;;;;;;;1999.90;999.90;;;;;;;37.49;21.58;95750.59;5114785;28;20191;-60